Impacts TAF Board
For situational awareness. Not to be used for flight planning purposes.
IDs:

KDFW - Dallas-Ft Worth Intl, TX, US

Issued at 1233 UTC 07 Jul 2020
Updated at 1310 UTC 07 Jul 2020
Potential Impact None Slight Moderate High
Time1253Z 07/14Z 07/15Z 07/16Z 07/17Z 07/18Z 07/19Z 07/20Z 07/21Z 07/22Z 07/23Z 08/00Z 08/01Z 08/02Z>>
Type OBS PRVL
  [TEMP]  
PRVL
  [TEMP]  
PRVL PRVL PRVL PRVL PRVL PRVL PRVL PRVL PRVL PRVL PRVL
VIS 10 >6 >6 >6 >6 >6 >6 >6 >6 >6 >6 >6 >6 >6
CIG 11 80
  [8]  
80
  [8]  
80 45 45 45 45 45 45 45 80 80 80
Cover BKN BKN
  [BKN]  
BKN
  [BKN]  
BKN BKN BKN BKN BKN BKN BKN BKN BKN BKN BKN
FltCat MVFR VFR
  [IFR]  
VFR
  [IFR]  
VFR VFR VFR VFR VFR VFR VFR VFR VFR VFR VFR
WX -- --
  [--]  
--
  [--]  
-- VCTS VCTS VCTS VCTS VCTS VCTS VCTS -- -- --
WDir 100 110
[110]
110
[110]
110 150 150 150 150 150 150 150 150 150 150
WSpd 6 4
  [4]  
4
  [4]  
4 5 5 5 5 5 5 5 7 7 7
WGst -- --
  [--]  
--
  [--]  
-- -- -- -- -- -- -- -- -- -- --
Raw TAF
KDFW 071233Z 0713/0818 11004KT P6SM SCT015 BKN080
  TEMPO 0713/0716 BKN008 BKN015
  FM071700 15005KT P6SM VCTS BKN045CB
  FM080000 15007KT P6SM BKN080


Raw METAR
KDFW 071253Z 10006KT 10SM BKN011 BKN017 BKN300 24/23 A2993 RMK AO2 LTG DSNT S AND SW SLP126 T02390228 $
KDFW 071243Z 10006KT 10SM BKN011 BKN300 24/23 A2992 RMK AO2 LTG DSNT S AND SW T02390228 $
KDFW 071153Z 09005KT 10SM FEW015 FEW085 SCT160 SCT300 23/22 A2992 RMK AO2 SLP124 CB DSNT SE-SW MOV E ACC DSNT NW-NE 70006 T02330222 10239 20228 50005 $
KDFW 071053Z 08005KT 10SM FEW015 SCT085 BKN160 BKN300 23/22 A2993 RMK AO2 SLP127 T02330222 $

METAR Board
Radar Display
Forecast Discussion
For situational awareness. Not to be used for flight planning purposes.